Bombala, New South Wales

8:51 PM AEST on September 25, 2016 (GMT +1000)
Delegate | | Change Station

Elev 2520 ft 37.04 °S, 148.93 °E | Updated 9 seconds ago

Overcast
Overcast
43.3 °F
Feels Like 41 °F
N
4.0
Wind Variable Wind from South
Gusts 8.0 mph

Today
High -- | Low -- °F
--% Chance of Precip.
Yesterday
High -- | Low -- °F
Precip. -- in
Pressure 29.86 in
Visibility 6.2 miles
Clouds Overcast 800 ft
Windchill 41 °F
Dew Point 40 °F
Humidity 89%
Rainfall 0.02 in
Snow Depth Not available.
5:48 AM 6:02 PM
Waning Crescent, 29% visible
SPECI YCOM 251030Z AUTO 20009KT 9999 // OVC008 06/05 Q1011
Pressure 29.86 in
Visibility 6.2 miles
Clouds Overcast 800 ft
Windchill 41 °F
Dew Point 40 °F
Humidity 89%
Rainfall 0.02 in
Snow Depth Not available.
5:48 AM 6:02 PM
Waning Crescent, 29% visible
SPECI YCOM 251030Z AUTO 20009KT 9999 // OVC008 06/05 Q1011

10-Day Weather Forecast

No radar image for this location.
×

Almanac

Astronomy

Sep. 25, 2016 Rise Set
Actual Time
Civil Twilight
Nautical Twilight
Astronomical Twilight
Moon
Length of Visible Light
Length of Day
Tomorrow will be .
, % of the Moon is Illuminated

Today's Extremes

Country Highs Country Lows

Community

WunderPhotos

Upload Photos

1,941,570 photos uploaded!

WunderBlog® & News

Nearby

Air Quality

  Air Quality AQ Index Pollutant
Not available.

Snow Depth

Station Depth Elevation

Earthquake Activity

City Distance Mag. Time & Date
Minimum magnitude displayed is 2.5.

Coastal Water Temperatures

Place Temperature

Stations

Nearby Weather Stations

Station Location Temp. Windchill Dew Point Humidity Wind Precip. Elev Updated Type